Sayre, Pennsylvania
Current Conditions -  °F | °C
As of 2:53 AM on Monday 26 Jan 2015 (Local Time) from KELM Reporting Station
Overcast Overcast  
Wind Chill:   Ceiling: 7500
Heat Index: 14°   Visibility: 10mi
Dew Point: -1°   Wind: 8mph
Humidity: 52%   Direction: 60°ENE
Pressure: 29.97"   Gusts: NA
Location:  41.99°N, 76.53°W
Report Text: KELM 260753Z AUTO 06007KT 10SM SCT055 OVC075 M10/M18 A2997 RMK AO2 SLP165 T11001183
Loading
Personal Weather Stations






























Interactive Weather Map New forecast layout! Learn more

10-Day Weather Forecast

Advertisements
Track Severe Weather on mobile